Time;durP1;ratioP1;P1;durP2;ratioP2;P2;SDS_P1;SDS_P2;PMS_P1;PMS_P2;Temp;Humidity;BMP_temperature;BMP_pressure;BME280_temperature;BME280_humidity;BME280_pressure;Samples;Min_cycle;Max_cycle;Signal;HPM_P1;HPM_P2
2022/01/18 00:00:37;;;;;;;18.60;4.40;;;1.60;99.90;;;;;;5056364;28;20219;-76
2022/01/18 00:03:03;;;;;;;18.33;4.50;;;1.60;99.90;;;;;;5058951;28;20174;-76
2022/01/18 00:05:28;;;;;;;21.57;5.13;;;1.60;99.90;;;;;;5057320;28;20245;-77
2022/01/18 00:07:54;;;;;;;25.07;4.60;;;1.60;99.90;;;;;;5040188;28;20616;-76
2022/01/18 00:10:23;;;;;;;22.80;5.20;;;1.50;99.90;;;;;;5039431;28;20300;-76
2022/01/18 00:13:57;;;;;;;19.57;4.93;;;1.50;99.90;;;;;;5024749;28;20225;-76
2022/01/18 00:16:08;;;;;;;19.97;4.20;;;1.50;99.90;;;;;;5039948;28;20721;-76
2022/01/18 00:18:29;;;;;;;20.77;4.30;;;1.50;99.90;;;;;;5057621;28;20177;-74
2022/01/18 00:23:37;;;;;;;19.50;4.27;;;1.40;99.90;;;;;;5057608;28;20237;-75
2022/01/18 00:26:05;;;;;;;26.03;4.63;;;1.40;99.90;;;;;;5040116;28;20212;-76
2022/01/18 00:28:31;;;;;;;21.67;4.73;;;1.40;99.90;;;;;;5039658;28;20211;-75
2022/01/18 00:36:21;;;;;;;18.57;4.23;;;1.40;99.90;;;;;;5057900;28;20293;-75
2022/01/18 00:38:48;;;;;;;18.70;5.20;;;1.40;99.90;;;;;;5041228;28;20218;-75
2022/01/18 00:41:15;;;;;;;17.97;4.97;;;1.40;99.90;;;;;;5039716;28;20226;-75
2022/01/18 00:43:42;;;;;;;21.03;4.53;;;1.30;99.90;;;;;;5057292;28;20257;-75
2022/01/18 00:46:07;;;;;;;20.90;5.50;;;1.30;99.90;;;;;;5057428;28;20210;-75
2022/01/18 00:48:35;;;;;;;21.33;4.40;;;1.30;99.90;;;;;;5039451;28;20175;-75
2022/01/18 00:51:03;;;;;;;16.13;4.60;;;1.30;99.90;;;;;;5039836;28;20218;-75
2022/01/18 00:53:35;;;;;;;23.10;4.67;;;1.30;99.90;;;;;;5039302;28;20206;-75
2022/01/18 00:56:17;;;;;;;12.97;3.90;;;1.30;99.90;;;;;;5038930;28;20278;-75
2022/01/18 00:58:44;;;;;;;22.87;4.70;;;1.30;99.90;;;;;;5038455;28;20204;-75
2022/01/18 01:01:11;;;;;;;22.93;4.77;;;1.30;99.90;;;;;;5055241;28;20265;-75
2022/01/18 01:03:37;;;;;;;27.27;5.27;;;1.30;99.90;;;;;;5057053;28;20265;-75
2022/01/18 01:06:04;;;;;;;21.23;5.43;;;1.20;99.90;;;;;;5057826;28;20183;-75
2022/01/18 01:08:30;;;;;;;22.50;5.57;;;1.20;99.90;;;;;;5037598;28;20214;-75
2022/01/18 01:10:55;;;;;;;21.67;5.23;;;1.20;99.90;;;;;;5056973;28;20219;-75
2022/01/18 01:13:22;;;;;;;25.43;5.67;;;1.20;99.90;;;;;;5022885;28;20215;-75
2022/01/18 01:16:06;;;;;;;26.90;5.17;;;1.20;99.90;;;;;;5056297;28;20222;-75
2022/01/18 01:19:46;;;;;;;29.63;5.77;;;1.20;99.90;;;;;;5038137;28;20262;-76
2022/01/18 01:35:26;;;;;;;30.10;5.97;;;1.20;99.90;;;;;;5056846;28;20229;-75
2022/01/18 01:43:27;;;;;;;23.03;5.63;;;1.20;99.90;;;;;;5056712;28;20218;-75
2022/01/18 01:45:54;;;;;;;31.70;6.93;;;1.20;99.90;;;;;;5055818;28;20203;-75
2022/01/18 01:48:23;;;;;;;23.23;5.00;;;1.20;99.90;;;;;;5038197;28;20186;-75
2022/01/18 01:51:09;;;;;;;25.37;5.50;;;1.20;99.90;;;;;;5021804;28;20221;-75
2022/01/18 01:53:34;;;;;;;30.97;6.23;;;1.20;99.90;;;;;;5055850;28;20779;-76
2022/01/18 01:56:01;;;;;;;21.00;4.90;;;1.20;99.90;;;;;;5055616;28;20208;-76
2022/01/18 01:58:27;;;;;;;22.23;4.93;;;1.10;99.90;;;;;;5038080;28;20718;-76
2022/01/18 02:00:56;;;;;;;29.93;5.93;;;1.20;99.90;;;;;;5053284;28;20197;-76
2022/01/18 02:03:22;;;;;;;20.93;4.73;;;1.20;99.90;;;;;;5056408;28;20177;-75
2022/01/18 02:05:48;;;;;;;22.73;5.90;;;1.20;99.90;;;;;;5037894;28;20654;-76
2022/01/18 02:08:14;;;;;;;19.00;5.70;;;1.10;99.90;;;;;;5037824;28;20207;-77
2022/01/18 02:10:41;;;;;;;19.37;4.50;;;1.10;99.90;;;;;;5036228;28;20666;-74
2022/01/18 02:13:08;;;;;;;19.27;4.90;;;1.10;99.90;;;;;;5037830;28;20240;-76
2022/01/18 02:15:41;;;;;;;30.80;5.93;;;1.10;99.90;;;;;;5055662;28;20212;-77
2022/01/18 02:23:36;;;;;;;25.23;4.93;;;1.10;99.90;;;;;;5070422;28;20223;-76
2022/01/18 02:26:02;;;;;;;28.33;5.63;;;1.10;99.90;;;;;;5054060;28;20203;-76
2022/01/18 02:28:28;;;;;;;26.20;5.47;;;1.00;99.90;;;;;;5053682;28;20634;-76
2022/01/18 02:30:55;;;;;;;23.93;5.53;;;1.00;99.90;;;;;;5064182;28;20227;-76
2022/01/18 02:33:20;;;;;;;18.77;5.00;;;1.00;99.90;;;;;;5063338;28;20189;-76
2022/01/18 02:35:47;;;;;;;32.90;5.57;;;1.00;99.90;;;;;;5060697;28;20252;-76
2022/01/18 02:38:13;;;;;;;21.73;4.87;;;1.00;99.90;;;;;;5041920;28;20283;-76
2022/01/18 02:40:39;;;;;;;24.13;5.37;;;1.00;99.90;;;;;;5058502;28;20238;-76
2022/01/18 02:45:52;;;;;;;24.00;5.00;;;1.00;99.90;;;;;;5057411;28;20187;-78
2022/01/18 02:48:18;;;;;;;23.00;5.70;;;1.00;99.90;;;;;;5058701;28;20214;-76
2022/01/18 02:50:44;;;;;;;18.90;4.57;;;0.90;99.90;;;;;;5057218;28;20822;-76
2022/01/18 02:53:10;;;;;;;29.23;5.40;;;0.90;99.90;;;;;;5057643;28;20274;-76
2022/01/18 02:55:35;;;;;;;25.03;4.90;;;0.90;99.90;;;;;;5056007;28;20242;-76
2022/01/18 02:58:09;;;;;;;27.33;4.97;;;0.90;99.90;;;;;;5056179;28;20730;-74
2022/01/18 03:03:12;;;;;;;24.73;4.80;;;0.90;99.90;;;;;;5054081;28;20210;-75
2022/01/18 03:03:32;;;;;;;20.23;5.27;;;0.90;99.90;;;;;;5056597;28;20228;-75
2022/01/18 03:05:58;;;;;;;22.30;5.37;;;0.90;99.90;;;;;;5037733;28;20214;-75
2022/01/18 03:08:24;;;;;;;24.07;5.20;;;0.90;99.90;;;;;;5037908;28;20218;-74
2022/01/18 03:10:50;;;;;;;24.53;4.67;;;0.90;99.90;;;;;;5037378;28;20218;-76
2022/01/18 03:13:18;;;;;;;26.97;4.90;;;0.90;99.90;;;;;;5055499;28;20215;-75
2022/01/18 03:15:44;;;;;;;18.97;4.97;;;0.90;99.90;;;;;;5055152;28;20210;-75
2022/01/18 03:18:09;;;;;;;24.27;4.87;;;0.90;99.90;;;;;;5038080;28;20175;-75
2022/01/18 03:20:36;;;;;;;23.50;5.87;;;0.90;99.90;;;;;;5037344;28;20215;-75
2022/01/18 03:23:02;;;;;;;26.07;6.87;;;0.90;99.90;;;;;;5059061;28;20208;-75
2022/01/18 03:28:05;;;;;;;22.90;5.87;;;0.90;99.90;;;;;;5058483;28;20240;-76
2022/01/18 03:30:36;;;;;;;27.50;5.10;;;0.90;99.90;;;;;;5057796;28;20207;-75
2022/01/18 03:33:03;;;;;;;22.37;4.87;;;0.90;99.90;;;;;;5032798;28;20264;-75
2022/01/18 03:35:29;;;;;;;28.30;6.17;;;0.90;99.90;;;;;;5058125;28;20210;-75
2022/01/18 03:37:54;;;;;;;23.93;5.67;;;0.90;99.90;;;;;;5058269;28;20213;-75
2022/01/18 03:40:31;;;;;;;26.70;5.37;;;1.00;99.90;;;;;;5057931;28;20222;-76
2022/01/18 03:42:59;;;;;;;22.27;5.63;;;1.00;99.90;;;;;;5036575;28;20207;-76
2022/01/18 03:45:28;;;;;;;25.33;5.23;;;1.00;99.90;;;;;;5059047;28;20219;-75
2022/01/18 03:47:56;;;;;;;32.33;6.87;;;1.00;99.90;;;;;;5058172;28;20573;-75
2022/01/18 03:50:22;;;;;;;25.57;5.27;;;1.00;99.90;;;;;;5057938;28;20212;-73
2022/01/18 03:52:47;;;;;;;27.00;5.50;;;1.10;99.90;;;;;;5058632;28;20225;-75
2022/01/18 03:55:16;;;;;;;24.97;5.27;;;1.10;99.90;;;;;;5058369;28;20637;-75
2022/01/18 03:57:42;;;;;;;26.63;5.50;;;1.10;99.90;;;;;;5040280;28;20208;-75
2022/01/18 04:00:17;;;;;;;32.07;6.17;;;1.10;99.90;;;;;;5040676;28;20328;-76
2022/01/18 04:02:43;;;;;;;28.87;6.27;;;1.00;99.90;;;;;;5059462;28;20203;-75
2022/01/18 04:05:09;;;;;;;26.03;5.17;;;1.00;99.90;;;;;;5059839;28;20249;-75
2022/01/18 04:07:35;;;;;;;21.87;5.00;;;1.00;99.90;;;;;;5059707;28;20217;-75
2022/01/18 04:10:01;;;;;;;29.53;6.30;;;1.00;99.90;;;;;;5059416;28;20222;-75
2022/01/18 04:12:26;;;;;;;25.93;4.37;;;1.00;99.90;;;;;;5034346;28;20243;-75
2022/01/18 04:14:53;;;;;;;28.17;5.57;;;1.00;99.90;;;;;;5060316;28;20203;-75
2022/01/18 04:28:25;;;;;;;28.47;5.93;;;1.30;99.90;;;;;;5057556;28;20230;-75
2022/01/18 04:30:51;;;;;;;28.53;7.40;;;1.30;99.90;;;;;;5024343;28;20208;-75
2022/01/18 04:33:17;;;;;;;22.20;4.50;;;1.40;99.90;;;;;;5057352;28;20182;-75
2022/01/18 04:35:43;;;;;;;27.70;5.30;;;1.40;99.90;;;;;;5057443;28;20223;-76
2022/01/18 04:38:08;;;;;;;27.60;5.47;;;1.50;99.90;;;;;;5057885;28;20214;-75
2022/01/18 04:40:36;;;;;;;25.40;5.63;;;1.50;99.90;;;;;;5056906;28;20472;-76
2022/01/18 04:43:15;;;;;;;26.00;5.40;;;1.50;99.90;;;;;;5026312;28;20210;-76
2022/01/18 04:48:34;;;;;;;23.73;5.13;;;1.60;99.90;;;;;;5057203;28;20187;-75
2022/01/18 04:51:08;;;;;;;21.33;4.87;;;1.60;99.90;;;;;;5039141;28;20578;-76
2022/01/18 04:53:36;;;;;;;23.13;4.70;;;1.70;99.90;;;;;;5038779;28;20225;-75
2022/01/18 04:56:08;;;;;;;23.00;5.27;;;1.70;99.90;;;;;;5039181;28;20275;-75
2022/01/18 04:58:34;;;;;;;28.87;5.20;;;1.70;99.90;;;;;;5055883;28;20676;-75
2022/01/18 05:01:02;;;;;;;21.57;5.17;;;1.80;99.90;;;;;;5055928;28;20582;-76
2022/01/18 05:03:29;;;;;;;23.87;5.83;;;1.80;99.90;;;;;;5057018;28;20168;-75
2022/01/18 05:05:57;;;;;;;17.40;4.30;;;1.80;99.90;;;;;;5037727;28;20581;-75
2022/01/18 05:08:24;;;;;;;27.30;4.80;;;1.80;99.90;;;;;;5038435;28;20219;-75
2022/01/18 05:10:53;;;;;;;22.97;4.87;;;1.80;99.90;;;;;;5056062;28;20297;-75
2022/01/18 05:21:30;;;;;;;14.03;4.63;;;1.80;99.90;;;;;;5057294;28;20674;-75
2022/01/18 05:23:56;;;;;;;21.47;5.37;;;1.70;99.90;;;;;;5024086;28;20209;-75
2022/01/18 05:26:24;;;;;;;27.37;5.13;;;1.70;99.90;;;;;;5039947;28;20227;-74
2022/01/18 05:28:50;;;;;;;21.93;4.63;;;1.70;99.90;;;;;;5057472;28;20684;-75
2022/01/18 05:31:16;;;;;;;17.13;4.30;;;1.70;99.90;;;;;;5058012;28;20745;-75
2022/01/18 05:33:42;;;;;;;20.43;4.67;;;1.70;99.90;;;;;;5056738;28;20182;-75
2022/01/18 05:36:11;;;;;;;21.33;4.57;;;1.70;99.90;;;;;;5056098;28;20203;-73
2022/01/18 05:38:37;;;;;;;22.33;5.17;;;1.70;99.90;;;;;;5055598;28;20207;-75
2022/01/18 05:41:05;;;;;;;20.47;4.37;;;1.60;99.90;;;;;;5050174;23;20230;-70
2022/01/18 05:43:30;;;;;;;12.53;3.97;;;1.70;99.90;;;;;;5046741;28;20560;-70
2022/01/18 05:45:56;;;;;;;23.17;4.70;;;1.60;99.90;;;;;;5038874;28;20218;-70
2022/01/18 05:48:21;;;;;;;23.30;5.40;;;1.60;99.90;;;;;;5029742;28;20194;-68
2022/01/18 05:50:47;;;;;;;20.43;5.17;;;1.60;99.90;;;;;;5037385;28;20212;-70
2022/01/18 05:53:12;;;;;;;24.20;5.00;;;1.60;99.90;;;;;;5029533;28;20205;-70
2022/01/18 05:55:38;;;;;;;24.83;4.93;;;1.60;99.90;;;;;;5030244;28;20238;-69
2022/01/18 05:58:03;;;;;;;21.97;4.60;;;1.60;99.90;;;;;;5030649;28;20590;-69
2022/01/18 06:00:30;;;;;;;14.63;4.53;;;1.50;99.90;;;;;;5028466;28;20176;-70
2022/01/18 06:08:07;;;;;;;23.03;4.77;;;1.40;99.90;;;;;;5030743;28;20311;-71
2022/01/18 06:10:33;;;;;;;29.67;5.10;;;1.40;99.90;;;;;;5029149;28;20736;-70
2022/01/18 06:13:01;;;;;;;17.50;4.53;;;1.40;99.90;;;;;;5030845;28;20225;-70
2022/01/18 06:15:28;;;;;;;20.70;4.53;;;1.40;99.90;;;;;;5030810;28;20202;-70
2022/01/18 06:17:54;;;;;;;14.00;4.07;;;1.40;99.90;;;;;;5029291;28;20562;-70
2022/01/18 06:20:19;;;;;;;24.57;4.53;;;1.40;99.90;;;;;;5028932;28;20279;-70
2022/01/18 06:22:45;;;;;;;30.40;7.00;;;1.50;99.90;;;;;;5030725;28;20199;-70
2022/01/18 06:25:10;;;;;;;29.50;5.77;;;1.60;99.90;;;;;;5030563;28;20216;-71
2022/01/18 06:27:36;;;;;;;16.90;4.87;;;1.60;99.90;;;;;;5030877;28;20541;-71
2022/01/18 06:30:05;;;;;;;22.03;5.13;;;1.60;99.90;;;;;;5030435;28;20187;-70
2022/01/18 06:32:30;;;;;;;24.73;4.47;;;1.70;99.90;;;;;;5028975;28;20655;-70
2022/01/18 06:34:56;;;;;;;17.47;4.70;;;1.70;99.90;;;;;;5030526;28;20200;-70
2022/01/18 06:37:21;;;;;;;18.10;4.20;;;1.70;99.90;;;;;;5030072;28;20669;-70
2022/01/18 06:39:47;;;;;;;19.13;4.97;;;1.70;99.90;;;;;;5028967;28;20174;-71
2022/01/18 06:42:14;;;;;;;21.87;5.10;;;1.80;99.90;;;;;;5030450;28;20727;-71
2022/01/18 06:44:40;;;;;;;15.57;4.13;;;1.80;99.90;;;;;;5030365;28;20639;-70
2022/01/18 06:47:05;;;;;;;18.97;5.17;;;1.90;99.90;;;;;;5030254;28;20207;-70
2022/01/18 06:49:31;;;;;;;21.10;5.00;;;1.90;99.90;;;;;;5030015;28;20303;-71
2022/01/18 06:51:56;;;;;;;20.17;4.97;;;2.00;99.90;;;;;;5030399;28;20250;-71
2022/01/18 06:54:22;;;;;;;18.90;4.30;;;2.00;99.90;;;;;;5030600;28;20194;-69
2022/01/18 06:56:49;;;;;;;17.07;4.20;;;2.00;99.90;;;;;;5031983;28;20254;-69
2022/01/18 06:59:16;;;;;;;18.27;3.97;;;2.10;99.90;;;;;;5034076;28;20800;-70
2022/01/18 07:01:42;;;;;;;20.77;4.20;;;2.10;99.90;;;;;;5033834;28;20217;-70
2022/01/18 07:04:08;;;;;;;20.30;5.03;;;2.20;99.90;;;;;;5034390;28;20203;-71
2022/01/18 07:06:34;;;;;;;18.77;4.13;;;2.20;99.90;;;;;;5034245;28;20189;-70
2022/01/18 07:09:01;;;;;;;23.93;5.07;;;2.30;99.90;;;;;;5032569;28;20219;-70
2022/01/18 07:11:27;;;;;;;16.27;4.00;;;2.40;99.90;;;;;;5032119;28;20216;-70
2022/01/18 07:13:53;;;;;;;21.90;4.57;;;2.40;99.90;;;;;;5032915;28;20208;-70
2022/01/18 07:16:18;;;;;;;25.97;5.17;;;2.40;99.90;;;;;;5033807;28;20241;-70
2022/01/18 07:18:44;;;;;;;19.43;5.03;;;2.50;99.90;;;;;;5034039;28;20657;-71
2022/01/18 07:21:10;;;;;;;18.87;4.43;;;2.50;99.90;;;;;;5043786;28;20249;-72
2022/01/18 07:23:39;;;;;;;20.33;5.00;;;2.60;99.90;;;;;;5035869;28;20208;-70
2022/01/18 07:26:05;;;;;;;21.50;5.13;;;2.60;99.90;;;;;;5033480;28;20295;-71
2022/01/18 07:28:30;;;;;;;16.43;5.50;;;2.70;99.90;;;;;;5031971;28;20625;-71
2022/01/18 07:30:56;;;;;;;16.03;4.10;;;2.70;99.90;;;;;;5032128;28;20326;-71
2022/01/18 07:33:22;;;;;;;15.07;4.17;;;2.70;99.90;;;;;;5034130;28;20199;-70
2022/01/18 07:35:48;;;;;;;15.97;4.70;;;2.80;99.90;;;;;;5031959;28;20300;-71
2022/01/18 07:38:16;;;;;;;22.30;4.63;;;2.80;99.90;;;;;;5032171;28;20235;-70
2022/01/18 07:40:44;;;;;;;15.50;4.13;;;2.90;99.90;;;;;;5033051;28;20299;-71
2022/01/18 07:43:11;;;;;;;19.50;4.07;;;2.90;99.90;;;;;;5033532;28;20246;-71
2022/01/18 07:45:37;;;;;;;23.93;5.03;;;2.90;99.90;;;;;;5033430;28;20169;-70
2022/01/18 07:48:03;;;;;;;18.77;4.50;;;3.00;99.90;;;;;;5033747;28;20567;-71
2022/01/18 07:50:28;;;;;;;22.10;4.30;;;3.00;99.90;;;;;;5031835;28;20637;-71
2022/01/18 07:52:54;;;;;;;19.70;4.70;;;3.10;99.90;;;;;;5033753;28;20201;-71
2022/01/18 07:55:19;;;;;;;18.23;5.83;;;3.10;99.90;;;;;;5032028;28;20673;-70
2022/01/18 07:57:45;;;;;;;17.63;4.23;;;3.10;99.90;;;;;;5032926;28;20753;-71
2022/01/18 08:00:13;;;;;;;22.13;5.20;;;3.20;99.90;;;;;;5033356;28;20184;-71
2022/01/18 08:02:39;;;;;;;19.37;4.97;;;3.20;99.90;;;;;;5033231;28;20214;-70
2022/01/18 08:05:06;;;;;;;17.83;4.37;;;3.20;99.90;;;;;;5033062;28;20208;-70
2022/01/18 08:07:32;;;;;;;22.90;3.77;;;3.30;99.90;;;;;;5030608;28;20681;-70
2022/01/18 08:09:57;;;;;;;14.90;4.03;;;3.30;99.90;;;;;;5031394;28;20215;-70
2022/01/18 08:12:23;;;;;;;14.57;4.50;;;3.40;99.90;;;;;;5033055;28;20331;-70
2022/01/18 08:14:50;;;;;;;19.30;4.97;;;3.40;99.90;;;;;;5033113;28;20209;-70
2022/01/18 08:17:16;;;;;;;24.43;3.60;;;3.40;99.90;;;;;;5032812;28;20283;-70
2022/01/18 08:19:41;;;;;;;18.27;4.77;;;3.40;99.90;;;;;;5032062;28;20242;-70
2022/01/18 08:22:09;;;;;;;22.50;5.43;;;3.50;99.90;;;;;;5032521;28;20291;-70
2022/01/18 08:24:35;;;;;;;23.00;4.37;;;3.50;99.90;;;;;;5031392;28;20239;-70
2022/01/18 08:27:00;;;;;;;16.60;4.30;;;3.60;99.90;;;;;;5033251;28;20168;-70
2022/01/18 08:29:26;;;;;;;17.27;4.20;;;3.60;99.90;;;;;;5030657;28;20210;-70
2022/01/18 08:31:51;;;;;;;17.83;4.57;;;3.70;99.90;;;;;;5032593;28;20229;-70
2022/01/18 08:34:17;;;;;;;15.30;4.00;;;3.70;99.90;;;;;;5032741;28;20256;-70
2022/01/18 08:36:43;;;;;;;20.50;4.47;;;3.80;99.90;;;;;;5032383;28;20286;-70
2022/01/18 08:39:09;;;;;;;15.67;4.07;;;3.80;99.90;;;;;;5032848;28;20205;-70
2022/01/18 08:41:35;;;;;;;14.13;4.07;;;3.90;99.90;;;;;;5031983;28;20232;-70
2022/01/18 08:44:01;;;;;;;18.10;4.37;;;3.90;99.90;;;;;;5032489;28;20202;-70
2022/01/18 08:46:26;;;;;;;16.80;4.43;;;4.00;99.90;;;;;;5030699;28;20210;-70
2022/01/18 08:48:52;;;;;;;18.10;4.33;;;4.00;99.90;;;;;;5032054;28;20676;-70
2022/01/18 08:51:18;;;;;;;22.30;4.97;;;4.10;99.90;;;;;;5032225;28;20251;-70
2022/01/18 08:53:50;;;;;;;15.63;3.93;;;4.10;99.90;;;;;;5032546;28;20198;-70
2022/01/18 08:56:20;;;;;;;18.73;3.93;;;4.20;99.90;;;;;;5030786;28;20294;-70
2022/01/18 08:58:47;;;;;;;16.60;4.63;;;4.30;99.90;;;;;;5023798;28;20212;-70
2022/01/18 09:01:13;;;;;;;13.13;3.67;;;4.40;99.90;;;;;;5032780;28;20217;-71
2022/01/18 09:03:39;;;;;;;17.80;5.57;;;4.40;99.90;;;;;;5038623;28;20186;-70
2022/01/18 09:06:06;;;;;;;16.43;4.07;;;4.50;99.90;;;;;;5036930;28;20171;-70
2022/01/18 09:08:32;;;;;;;19.03;4.47;;;4.50;99.90;;;;;;5045980;28;20214;-70
2022/01/18 09:10:58;;;;;;;12.73;4.17;;;4.50;99.90;;;;;;5041592;28;20222;-71
2022/01/18 09:13:23;;;;;;;15.70;3.93;;;4.60;99.90;;;;;;5032932;28;20232;-70
2022/01/18 09:15:51;;;;;;;18.97;3.57;;;4.60;99.90;;;;;;5031662;28;20241;-70
2022/01/18 09:18:16;;;;;;;23.27;4.00;;;4.60;99.90;;;;;;5034467;28;20186;-71
2022/01/18 09:20:42;;;;;;;16.80;4.10;;;4.60;99.90;;;;;;5034445;28;20212;-70
2022/01/18 09:23:08;;;;;;;14.80;3.73;;;4.70;99.90;;;;;;5033297;28;20298;-70
2022/01/18 09:25:34;;;;;;;13.60;4.10;;;4.70;99.90;;;;;;5037461;28;20723;-70
2022/01/18 09:28:00;;;;;;;16.97;3.67;;;4.70;99.90;;;;;;5036636;28;20235;-70
2022/01/18 09:30:28;;;;;;;37.07;13.73;;;4.70;99.90;;;;;;5044733;28;20182;-70
2022/01/18 09:32:55;;;;;;;16.77;5.57;;;4.80;99.90;;;;;;5046846;28;20214;-70
2022/01/18 09:35:21;;;;;;;16.30;4.27;;;4.80;99.90;;;;;;5047559;28;20234;-70
2022/01/18 09:37:48;;;;;;;15.13;5.20;;;4.90;99.90;;;;;;5047553;28;20229;-70
2022/01/18 09:40:18;;;;;;;14.23;4.13;;;4.90;99.90;;;;;;5043582;28;20216;-70
2022/01/18 09:42:46;;;;;;;19.27;4.37;;;4.90;99.90;;;;;;5043496;28;20201;-70
2022/01/18 09:45:15;;;;;;;16.87;4.23;;;4.90;99.90;;;;;;5036848;28;20262;-69
2022/01/18 09:47:43;;;;;;;16.63;4.70;;;5.00;99.90;;;;;;5036862;28;20239;-70
2022/01/18 09:50:11;;;;;;;10.90;3.83;;;5.20;99.90;;;;;;5031771;28;20212;-70
2022/01/18 09:52:38;;;;;;;18.73;4.50;;;5.30;99.90;;;;;;5029636;28;20597;-70
2022/01/18 09:55:05;;;;;;;13.20;3.67;;;5.40;99.90;;;;;;5031471;28;20295;-70
2022/01/18 09:57:32;;;;;;;12.23;3.77;;;5.40;99.90;;;;;;5031184;28;20236;-69
2022/01/18 09:59:59;;;;;;;16.17;4.10;;;5.50;99.90;;;;;;5028996;28;20684;-70
2022/01/18 10:02:25;;;;;;;22.73;3.90;;;5.50;99.90;;;;;;5036424;28;20251;-70
2022/01/18 10:04:53;;;;;;;15.20;3.33;;;5.50;99.90;;;;;;5030938;28;20231;-70
2022/01/18 10:07:31;;;;;;;10.70;3.53;;;5.60;99.90;;;;;;5029487;28;20216;-71
2022/01/18 10:09:59;;;;;;;10.47;3.47;;;5.60;99.90;;;;;;5030749;28;20234;-70
2022/01/18 10:12:25;;;;;;;19.63;4.00;;;5.70;99.90;;;;;;5043702;28;20219;-70
2022/01/18 10:14:55;;;;;;;16.57;4.10;;;5.60;99.90;;;;;;5035154;28;20208;-70
2022/01/18 10:17:36;;;;;;;15.90;4.23;;;5.60;99.90;;;;;;5034414;28;20222;-70
2022/01/18 10:20:15;;;;;;;21.00;3.50;;;5.70;99.90;;;;;;5035288;28;20282;-72
2022/01/18 10:22:42;;;;;;;13.10;3.30;;;5.80;99.90;;;;;;5033817;28;20290;-72
2022/01/18 10:25:23;;;;;;;16.70;3.70;;;5.90;99.90;;;;;;5033899;28;20229;-72
2022/01/18 10:27:52;;;;;;;15.40;3.80;;;5.90;99.90;;;;;;5026064;28;20176;-72
2022/01/18 10:30:47;;;;;;;11.80;3.80;;;5.90;99.90;;;;;;5035132;28;20668;-70
2022/01/18 10:33:17;;;;;;;9.63;3.37;;;6.10;99.90;;;;;;5032112;28;20253;-72
2022/01/18 10:36:11;;;;;;;11.97;3.97;;;6.30;99.90;;;;;;5036308;28;20265;-72
2022/01/18 10:38:39;;;;;;;16.10;3.63;;;6.30;99.90;;;;;;5040765;28;20212;-71
2022/01/18 10:41:31;;;;;;;12.60;3.83;;;6.50;99.90;;;;;;5033156;28;20212;-71
2022/01/18 10:44:08;;;;;;;12.27;3.10;;;6.50;99.90;;;;;;5026868;28;20211;-72
2022/01/18 10:46:39;;;;;;;10.47;2.87;;;6.60;99.90;;;;;;5035302;28;20273;-71
2022/01/18 10:49:05;;;;;;;12.23;2.77;;;6.60;99.90;;;;;;5035410;28;20258;-72
2022/01/18 10:51:34;;;;;;;9.93;3.73;;;6.70;99.90;;;;;;5036329;28;20200;-71
2022/01/18 10:54:06;;;;;;;12.50;2.60;;;6.80;99.90;;;;;;5032189;28;20235;-70
2022/01/18 10:56:41;;;;;;;10.47;2.87;;;6.80;99.90;;;;;;5029568;28;20216;-71
2022/01/18 10:59:14;;;;;;;11.37;3.00;;;6.70;99.90;;;;;;5028455;28;20204;-71
2022/01/18 11:01:39;;;;;;;13.97;2.83;;;6.60;99.90;;;;;;5028646;28;20231;-70
2022/01/18 11:04:14;;;;;;;17.37;3.50;;;6.70;99.90;;;;;;5032310;28;20587;-71
2022/01/18 11:06:43;;;;;;;13.40;2.60;;;6.80;99.90;;;;;;5029928;28;20214;-71
2022/01/18 11:09:12;;;;;;;12.43;3.10;;;6.70;99.90;;;;;;5033733;28;20208;-71
2022/01/18 11:11:45;;;;;;;10.27;3.00;;;6.60;99.90;;;;;;5046357;28;20258;-70
2022/01/18 11:14:13;;;;;;;14.30;3.17;;;6.50;99.90;;;;;;5035084;28;20243;-71
2022/01/18 11:16:43;;;;;;;12.87;2.77;;;6.50;99.90;;;;;;5030719;28;20216;-70
2022/01/18 11:19:18;;;;;;;6.60;2.43;;;6.60;99.90;;;;;;5031082;28;20220;-70
2022/01/18 11:21:49;;;;;;;5.07;2.00;;;6.50;99.90;;;;;;5034419;28;20227;-70
2022/01/18 11:24:16;;;;;;;10.20;2.60;;;6.50;99.90;;;;;;5037584;28;20176;-71
2022/01/18 11:26:44;;;;;;;11.83;2.80;;;6.50;99.90;;;;;;5028766;28;20301;-71
2022/01/18 11:29:11;;;;;;;8.20;2.13;;;6.40;99.90;;;;;;5028850;28;20212;-71
2022/01/18 11:31:37;;;;;;;8.27;2.30;;;6.30;99.90;;;;;;5028978;28;20224;-71
2022/01/18 11:34:05;;;;;;;10.03;2.80;;;6.20;99.90;;;;;;5029149;28;20257;-70
2022/01/18 11:36:39;;;;;;;12.90;2.20;;;6.20;99.90;;;;;;5029213;28;20699;-70
2022/01/18 11:39:08;;;;;;;9.57;2.93;;;6.20;99.90;;;;;;5030612;28;20579;-71
2022/01/18 11:41:35;;;;;;;7.60;2.33;;;6.20;99.90;;;;;;5054876;23;20253;-75
2022/01/18 11:44:27;;;;;;;11.17;2.47;;;6.20;99.90;;;;;;5051361;28;20254;-75
2022/01/18 11:46:55;;;;;;;8.30;2.87;;;6.40;99.90;;;;;;5053547;28;20208;-75
2022/01/18 11:49:23;;;;;;;11.77;2.40;;;6.40;99.90;;;;;;5044639;28;20300;-76
2022/01/18 11:51:54;;;;;;;16.10;3.57;;;6.50;99.90;;;;;;5050231;28;20219;-75
2022/01/18 11:56:58;;;;;;;9.03;2.23;;;6.60;99.90;;;;;;5052198;28;20211;-76
2022/01/18 11:59:34;;;;;;;13.10;2.67;;;6.70;99.90;;;;;;5057383;28;20208;-75
2022/01/18 12:02:03;;;;;;;8.73;2.40;;;6.60;99.90;;;;;;5057772;28;20215;-76
2022/01/18 12:04:54;;;;;;;7.23;2.00;;;6.70;99.90;;;;;;5058422;28;20215;-76
2022/01/18 12:07:36;;;;;;;8.20;2.07;;;6.70;99.90;;;;;;5058883;28;20218;-75
2022/01/18 12:10:07;;;;;;;8.67;1.87;;;6.80;99.90;;;;;;5052238;28;20238;-75
2022/01/18 12:12:42;;;;;;;10.37;1.97;;;6.80;99.90;;;;;;5059070;28;20275;-76
2022/01/18 12:15:17;;;;;;;9.50;2.47;;;6.70;99.90;;;;;;5058997;28;20241;-75
2022/01/18 12:17:48;;;;;;;9.57;2.53;;;6.80;99.90;;;;;;5057128;28;20530;-74
2022/01/18 12:20:35;;;;;;;11.23;2.90;;;6.80;99.90;;;;;;5058697;28;20210;-76
2022/01/18 12:23:05;;;;;;;8.33;3.07;;;6.80;99.90;;;;;;5053518;28;20207;-77
2022/01/18 12:25:35;;;;;;;8.40;2.43;;;6.70;99.90;;;;;;5058433;28;20342;-77
2022/01/18 12:34:44;;;;;;;8.17;1.50;;;6.80;99.90;;;;;;5053652;28;20220;-75
2022/01/18 12:37:23;;;;;;;10.63;2.00;;;6.70;99.90;;;;;;5053040;28;20223;-76
2022/01/18 12:39:55;;;;;;;6.87;2.03;;;6.70;99.90;;;;;;5050921;28;20226;-75
2022/01/18 12:45:22;;;;;;;9.00;2.87;;;6.70;99.90;;;;;;5061109;28;20235;-76
2022/01/18 12:48:03;;;;;;;14.07;2.77;;;6.70;99.90;;;;;;5058851;28;20287;-76
2022/01/18 12:50:42;;;;;;;7.13;2.23;;;6.70;99.90;;;;;;5059300;28;20274;-76
2022/01/18 12:53:11;;;;;;;9.10;2.33;;;6.70;99.90;;;;;;5058405;28;20200;-76
2022/01/18 12:55:46;;;;;;;5.50;1.60;;;6.70;99.90;;;;;;5059252;28;20208;-76
2022/01/18 12:58:31;;;;;;;7.97;2.50;;;6.70;99.90;;;;;;5060732;28;20211;-74
2022/01/18 13:01:15;;;;;;;14.37;2.97;;;6.70;99.90;;;;;;5057868;28;20235;-76
2022/01/18 13:03:43;;;;;;;11.53;2.43;;;6.70;99.90;;;;;;5067306;28;20230;-76
2022/01/18 13:06:11;;;;;;;8.90;2.43;;;6.60;99.90;;;;;;5070474;28;20183;-77
2022/01/18 13:08:46;;;;;;;7.77;2.40;;;6.60;99.90;;;;;;5070120;28;20212;-75
2022/01/18 13:11:19;;;;;;;11.47;2.17;;;6.50;99.90;;;;;;5069739;28;20236;-76
2022/01/18 13:13:53;;;;;;;11.20;2.57;;;6.50;99.90;;;;;;5071365;28;20306;-75
2022/01/18 13:26:49;;;;;;;6.63;2.10;;;6.50;99.90;;;;;;5064087;28;20210;-75
2022/01/18 13:29:19;;;;;;;10.37;2.27;;;6.50;99.90;;;;;;5056689;28;20209;-75
2022/01/18 13:31:58;;;;;;;6.17;2.20;;;6.50;99.90;;;;;;5062416;28;20230;-75
2022/01/18 13:34:33;;;;;;;14.10;2.47;;;6.40;99.90;;;;;;5062154;28;20239;-76
2022/01/18 13:37:01;;;;;;;7.67;2.17;;;6.40;99.90;;;;;;5057758;28;20222;-76
2022/01/18 13:39:31;;;;;;;9.03;2.40;;;6.40;99.90;;;;;;5058073;28;20263;-76
2022/01/18 13:42:00;;;;;;;9.03;2.13;;;6.40;99.90;;;;;;5057161;28;20219;-76
2022/01/18 13:44:26;;;;;;;12.00;2.90;;;6.30;99.90;;;;;;5056877;28;20212;-76
2022/01/18 13:46:52;;;;;;;12.73;3.33;;;6.30;99.90;;;;;;5056594;28;20676;-75
2022/01/18 13:49:23;;;;;;;16.77;4.40;;;6.30;99.90;;;;;;5056795;28;20750;-76
2022/01/18 13:52:06;;;;;;;9.10;2.80;;;6.30;99.90;;;;;;5049491;28;20817;-75
2022/01/18 13:54:46;;;;;;;12.70;3.10;;;6.30;99.90;;;;;;5057592;28;20171;-76
2022/01/18 13:57:12;;;;;;;5.13;2.30;;;6.30;99.90;;;;;;5057165;28;20243;-76
2022/01/18 13:59:37;;;;;;;10.93;2.23;;;6.20;99.90;;;;;;5048700;28;20204;-76
2022/01/18 14:02:10;;;;;;;5.03;2.00;;;6.20;99.90;;;;;;5056640;28;20219;-75
2022/01/18 14:04:36;;;;;;;10.63;2.67;;;6.20;99.90;;;;;;5055345;28;20230;-75
2022/01/18 14:07:05;;;;;;;8.50;1.87;;;6.20;99.90;;;;;;5055861;28;20208;-76
2022/01/18 14:09:30;;;;;;;9.50;2.07;;;6.20;99.90;;;;;;5055594;28;20180;-76
2022/01/18 14:11:56;;;;;;;7.53;2.33;;;6.20;99.90;;;;;;5055541;28;20215;-76
2022/01/18 14:14:31;;;;;;;10.87;2.00;;;6.10;99.90;;;;;;5056225;28;20576;-74
2022/01/18 14:17:04;;;;;;;8.33;1.80;;;6.10;99.90;;;;;;5057656;28;20222;-76
2022/01/18 14:19:35;;;;;;;5.33;1.70;;;6.10;99.90;;;;;;5055889;28;20240;-75
2022/01/18 14:22:23;;;;;;;6.30;2.00;;;6.00;99.90;;;;;;5058702;28;20244;-75
2022/01/18 14:24:51;;;;;;;11.87;2.83;;;6.00;99.90;;;;;;5050922;28;20172;-76